sensor_id;sensor_type;location;lat;lon;timestamp;P1;durP1;ratioP1;P2;durP2;ratioP2
49962;SDS011;36180;57.678;11.910;2023-12-28T00:01:52;2.38;;;1.00;;
49962;SDS011;36180;57.678;11.910;2023-12-28T00:04:19;2.20;;;1.02;;
49962;SDS011;36180;57.678;11.910;2023-12-28T00:06:46;3.28;;;0.88;;
49962;SDS011;36180;57.678;11.910;2023-12-28T00:09:12;2.22;;;0.82;;
49962;SDS011;36180;57.678;11.910;2023-12-28T00:11:41;1.73;;;0.90;;
49962;SDS011;36180;57.678;11.910;2023-12-28T00:14:08;1.67;;;0.55;;
49962;SDS011;36180;57.678;11.910;2023-12-28T00:16:35;4.90;;;1.05;;
49962;SDS011;36180;57.678;11.910;2023-12-28T00:19:02;2.45;;;0.90;;
49962;SDS011;36180;57.678;11.910;2023-12-28T00:21:29;2.08;;;0.90;;
49962;SDS011;36180;57.678;11.910;2023-12-28T00:23:56;4.00;;;0.85;;
49962;SDS011;36180;57.678;11.910;2023-12-28T00:26:23;3.30;;;0.77;;
49962;SDS011;36180;57.678;11.910;2023-12-28T00:29:02;3.00;;;0.90;;
49962;SDS011;36180;57.678;11.910;2023-12-28T00:31:29;2.40;;;0.80;;
49962;SDS011;36180;57.678;11.910;2023-12-28T00:33:56;3.42;;;0.77;;
49962;SDS011;36180;57.678;11.910;2023-12-28T00:36:23;2.25;;;0.80;;
49962;SDS011;36180;57.678;11.910;2023-12-28T00:38:51;2.22;;;1.02;;
49962;SDS011;36180;57.678;11.910;2023-12-28T00:41:18;2.15;;;0.98;;
49962;SDS011;36180;57.678;11.910;2023-12-28T00:43:45;4.30;;;0.90;;
49962;SDS011;36180;57.678;11.910;2023-12-28T00:46:14;3.88;;;0.80;;
49962;SDS011;36180;57.678;11.910;2023-12-28T00:48:41;3.72;;;1.02;;
49962;SDS011;36180;57.678;11.910;2023-12-28T00:51:08;1.90;;;0.98;;
49962;SDS011;36180;57.678;11.910;2023-12-28T00:53:35;2.15;;;0.80;;
49962;SDS011;36180;57.678;11.910;2023-12-28T00:56:02;2.95;;;0.80;;
49962;SDS011;36180;57.678;11.910;2023-12-28T00:58:30;3.38;;;0.93;;
49962;SDS011;36180;57.678;11.910;2023-12-28T01:00:57;1.52;;;0.70;;
49962;SDS011;36180;57.678;11.910;2023-12-28T01:03:25;2.10;;;0.90;;
49962;SDS011;36180;57.678;11.910;2023-12-28T01:05:52;1.98;;;0.90;;
49962;SDS011;36180;57.678;11.910;2023-12-28T01:08:19;6.00;;;1.10;;
49962;SDS011;36180;57.678;11.910;2023-12-28T01:10:46;2.45;;;0.65;;
49962;SDS011;36180;57.678;11.910;2023-12-28T01:13:13;6.05;;;1.08;;
49962;SDS011;36180;57.678;11.910;2023-12-28T01:15:41;3.95;;;0.80;;
49962;SDS011;36180;57.678;11.910;2023-12-28T01:18:07;1.67;;;0.77;;
49962;SDS011;36180;57.678;11.910;2023-12-28T01:20:36;3.30;;;1.10;;
49962;SDS011;36180;57.678;11.910;2023-12-28T01:23:03;3.58;;;0.90;;
49962;SDS011;36180;57.678;11.910;2023-12-28T01:25:31;2.30;;;0.73;;
49962;SDS011;36180;57.678;11.910;2023-12-28T01:27:58;4.82;;;1.00;;
49962;SDS011;36180;57.678;11.910;2023-12-28T01:30:25;2.17;;;0.80;;
49962;SDS011;36180;57.678;11.910;2023-12-28T01:32:53;2.25;;;0.70;;
49962;SDS011;36180;57.678;11.910;2023-12-28T01:35:20;4.65;;;1.15;;
49962;SDS011;36180;57.678;11.910;2023-12-28T01:37:48;3.72;;;0.85;;
49962;SDS011;36180;57.678;11.910;2023-12-28T01:40:15;4.72;;;0.90;;
49962;SDS011;36180;57.678;11.910;2023-12-28T01:42:43;2.38;;;0.73;;
49962;SDS011;36180;57.678;11.910;2023-12-28T01:45:11;1.30;;;0.70;;
49962;SDS011;36180;57.678;11.910;2023-12-28T01:47:38;1.50;;;0.70;;
49962;SDS011;36180;57.678;11.910;2023-12-28T01:50:06;1.92;;;0.60;;
49962;SDS011;36180;57.678;11.910;2023-12-28T01:52:34;3.22;;;0.80;;
49962;SDS011;36180;57.678;11.910;2023-12-28T01:55:02;0.82;;;0.47;;
49962;SDS011;36180;57.678;11.910;2023-12-28T01:57:30;0.40;;;0.40;;
49962;SDS011;36180;57.678;11.910;2023-12-28T01:59:57;4.38;;;0.55;;
49962;SDS011;36180;57.678;11.910;2023-12-28T02:02:27;0.55;;;0.45;;
49962;SDS011;36180;57.678;11.910;2023-12-28T02:04:54;0.50;;;0.50;;
49962;SDS011;36180;57.678;11.910;2023-12-28T02:07:21;0.85;;;0.40;;
49962;SDS011;36180;57.678;11.910;2023-12-28T02:09:50;0.40;;;0.40;;
49962;SDS011;36180;57.678;11.910;2023-12-28T02:12:18;0.30;;;0.30;;
49962;SDS011;36180;57.678;11.910;2023-12-28T02:14:45;2.70;;;0.47;;
49962;SDS011;36180;57.678;11.910;2023-12-28T02:17:13;0.30;;;0.30;;
49962;SDS011;36180;57.678;11.910;2023-12-28T02:19:46;0.40;;;0.40;;
49962;SDS011;36180;57.678;11.910;2023-12-28T02:22:15;0.70;;;0.38;;
49962;SDS011;36180;57.678;11.910;2023-12-28T02:27:33;0.95;;;0.40;;
49962;SDS011;36180;57.678;11.910;2023-12-28T02:30:01;0.30;;;0.30;;
49962;SDS011;36180;57.678;11.910;2023-12-28T02:32:32;3.25;;;0.40;;
49962;SDS011;36180;57.678;11.910;2023-12-28T02:35:06;0.30;;;0.30;;
49962;SDS011;36180;57.678;11.910;2023-12-28T02:37:40;1.05;;;0.30;;
49962;SDS011;36180;57.678;11.910;2023-12-28T02:40:10;0.32;;;0.25;;
49962;SDS011;36180;57.678;11.910;2023-12-28T02:42:38;0.38;;;0.38;;
49962;SDS011;36180;57.678;11.910;2023-12-28T02:45:05;0.30;;;0.30;;
49962;SDS011;36180;57.678;11.910;2023-12-28T02:47:33;1.48;;;0.52;;
49962;SDS011;36180;57.678;11.910;2023-12-28T02:50:00;0.30;;;0.30;;
49962;SDS011;36180;57.678;11.910;2023-12-28T02:52:27;1.90;;;0.50;;
49962;SDS011;36180;57.678;11.910;2023-12-28T02:54:54;0.50;;;0.43;;
49962;SDS011;36180;57.678;11.910;2023-12-28T02:57:22;0.98;;;0.30;;
49962;SDS011;36180;57.678;11.910;2023-12-28T02:59:49;0.52;;;0.25;;
49962;SDS011;36180;57.678;11.910;2023-12-28T03:02:16;0.68;;;0.50;;
49962;SDS011;36180;57.678;11.910;2023-12-28T03:04:45;1.00;;;0.35;;
49962;SDS011;36180;57.678;11.910;2023-12-28T03:07:12;0.40;;;0.40;;
49962;SDS011;36180;57.678;11.910;2023-12-28T03:09:39;0.43;;;0.30;;
49962;SDS011;36180;57.678;11.910;2023-12-28T03:12:06;1.77;;;0.50;;
49962;SDS011;36180;57.678;11.910;2023-12-28T03:14:35;0.32;;;0.32;;
49962;SDS011;36180;57.678;11.910;2023-12-28T03:17:03;1.27;;;0.43;;
49962;SDS011;36180;57.678;11.910;2023-12-28T03:19:30;0.93;;;0.40;;
49962;SDS011;36180;57.678;11.910;2023-12-28T03:21:57;1.10;;;0.50;;
49962;SDS011;36180;57.678;11.910;2023-12-28T03:24:24;0.30;;;0.30;;
49962;SDS011;36180;57.678;11.910;2023-12-28T03:26:51;4.22;;;0.60;;
49962;SDS011;36180;57.678;11.910;2023-12-28T03:29:19;1.92;;;0.50;;
49962;SDS011;36180;57.678;11.910;2023-12-28T03:31:47;2.15;;;0.98;;
49962;SDS011;36180;57.678;11.910;2023-12-28T03:34:15;0.50;;;0.40;;
49962;SDS011;36180;57.678;11.910;2023-12-28T03:36:42;1.02;;;0.70;;
49962;SDS011;36180;57.678;11.910;2023-12-28T03:39:10;1.15;;;0.50;;
49962;SDS011;36180;57.678;11.910;2023-12-28T03:41:37;2.17;;;0.50;;
49962;SDS011;36180;57.678;11.910;2023-12-28T03:44:04;1.23;;;0.60;;
49962;SDS011;36180;57.678;11.910;2023-12-28T03:46:31;1.85;;;0.50;;
49962;SDS011;36180;57.678;11.910;2023-12-28T03:49:00;1.02;;;0.52;;
49962;SDS011;36180;57.678;11.910;2023-12-28T03:51:27;0.70;;;0.70;;
49962;SDS011;36180;57.678;11.910;2023-12-28T03:53:54;1.98;;;0.70;;
49962;SDS011;36180;57.678;11.910;2023-12-28T03:56:21;1.13;;;0.80;;
49962;SDS011;36180;57.678;11.910;2023-12-28T03:58:49;0.70;;;0.50;;
49962;SDS011;36180;57.678;11.910;2023-12-28T04:01:16;0.73;;;0.70;;
49962;SDS011;36180;57.678;11.910;2023-12-28T04:03:44;2.58;;;0.82;;
49962;SDS011;36180;57.678;11.910;2023-12-28T04:06:12;0.88;;;0.70;;
49962;SDS011;36180;57.678;11.910;2023-12-28T04:08:40;1.15;;;0.90;;
49962;SDS011;36180;57.678;11.910;2023-12-28T04:11:07;2.42;;;0.88;;
49962;SDS011;36180;57.678;11.910;2023-12-28T04:13:34;1.58;;;1.30;;
49962;SDS011;36180;57.678;11.910;2023-12-28T04:16:02;1.75;;;1.10;;
49962;SDS011;36180;57.678;11.910;2023-12-28T04:18:30;1.92;;;1.23;;
49962;SDS011;36180;57.678;11.910;2023-12-28T04:20:57;3.17;;;1.50;;
49962;SDS011;36180;57.678;11.910;2023-12-28T04:23:25;3.40;;;1.70;;
49962;SDS011;36180;57.678;11.910;2023-12-28T04:25:52;3.00;;;1.42;;
49962;SDS011;36180;57.678;11.910;2023-12-28T04:28:19;2.67;;;1.70;;
49962;SDS011;36180;57.678;11.910;2023-12-28T04:30:46;5.97;;;1.80;;
49962;SDS011;36180;57.678;11.910;2023-12-28T04:33:13;2.25;;;1.73;;
49962;SDS011;36180;57.678;11.910;2023-12-28T04:35:44;3.55;;;1.85;;
49962;SDS011;36180;57.678;11.910;2023-12-28T04:38:11;4.97;;;2.13;;
49962;SDS011;36180;57.678;11.910;2023-12-28T04:40:39;3.53;;;1.90;;
49962;SDS011;36180;57.678;11.910;2023-12-28T04:43:07;4.55;;;2.22;;
49962;SDS011;36180;57.678;11.910;2023-12-28T04:45:34;4.30;;;2.35;;
49962;SDS011;36180;57.678;11.910;2023-12-28T04:48:01;9.77;;;2.80;;
49962;SDS011;36180;57.678;11.910;2023-12-28T04:50:28;5.47;;;2.88;;
49962;SDS011;36180;57.678;11.910;2023-12-28T04:52:56;8.07;;;3.25;;
49962;SDS011;36180;57.678;11.910;2023-12-28T04:55:23;12.50;;;3.65;;
49962;SDS011;36180;57.678;11.910;2023-12-28T04:57:51;9.52;;;3.83;;
49962;SDS011;36180;57.678;11.910;2023-12-28T05:00:18;9.90;;;4.68;;
49962;SDS011;36180;57.678;11.910;2023-12-28T05:02:47;12.90;;;5.05;;
49962;SDS011;36180;57.678;11.910;2023-12-28T05:05:15;17.08;;;6.53;;
49962;SDS011;36180;57.678;11.910;2023-12-28T05:07:42;18.80;;;6.78;;
49962;SDS011;36180;57.678;11.910;2023-12-28T05:10:09;25.95;;;7.53;;
49962;SDS011;36180;57.678;11.910;2023-12-28T05:12:36;19.08;;;7.03;;
49962;SDS011;36180;57.678;11.910;2023-12-28T05:15:05;23.33;;;8.10;;
49962;SDS011;36180;57.678;11.910;2023-12-28T05:17:32;23.13;;;8.88;;
49962;SDS011;36180;57.678;11.910;2023-12-28T05:19:59;36.60;;;10.52;;
49962;SDS011;36180;57.678;11.910;2023-12-28T05:22:26;34.05;;;10.57;;
49962;SDS011;36180;57.678;11.910;2023-12-28T05:24:53;34.33;;;10.85;;
49962;SDS011;36180;57.678;11.910;2023-12-28T05:27:20;42.67;;;12.55;;
49962;SDS011;36180;57.678;11.910;2023-12-28T05:29:47;52.65;;;14.13;;
49962;SDS011;36180;57.678;11.910;2023-12-28T05:32:15;56.25;;;13.55;;
49962;SDS011;36180;57.678;11.910;2023-12-28T05:34:42;60.08;;;14.55;;
49962;SDS011;36180;57.678;11.910;2023-12-28T05:37:09;63.03;;;15.25;;
49962;SDS011;36180;57.678;11.910;2023-12-28T05:39:36;50.85;;;14.88;;
49962;SDS011;36180;57.678;11.910;2023-12-28T05:42:03;61.75;;;14.55;;
49962;SDS011;36180;57.678;11.910;2023-12-28T05:44:31;60.33;;;15.10;;
49962;SDS011;36180;57.678;11.910;2023-12-28T05:46:57;76.00;;;16.77;;
49962;SDS011;36180;57.678;11.910;2023-12-28T05:49:26;74.75;;;17.85;;
49962;SDS011;36180;57.678;11.910;2023-12-28T05:51:53;61.47;;;17.27;;
49962;SDS011;36180;57.678;11.910;2023-12-28T05:54:20;77.28;;;16.80;;
49962;SDS011;36180;57.678;11.910;2023-12-28T05:56:47;65.65;;;16.45;;
49962;SDS011;36180;57.678;11.910;2023-12-28T05:59:14;76.45;;;16.30;;
49962;SDS011;36180;57.678;11.910;2023-12-28T06:01:42;67.80;;;17.15;;
49962;SDS011;36180;57.678;11.910;2023-12-28T06:04:09;62.25;;;15.30;;
49962;SDS011;36180;57.678;11.910;2023-12-28T06:06:37;67.28;;;14.40;;
49962;SDS011;36180;57.678;11.910;2023-12-28T06:09:04;68.57;;;15.15;;
49962;SDS011;36180;57.678;11.910;2023-12-28T06:11:31;75.13;;;15.88;;
49962;SDS011;36180;57.678;11.910;2023-12-28T06:13:58;69.05;;;16.30;;
49962;SDS011;36180;57.678;11.910;2023-12-28T06:16:26;89.68;;;17.23;;
49962;SDS011;36180;57.678;11.910;2023-12-28T06:18:57;74.30;;;14.75;;
49962;SDS011;36180;57.678;11.910;2023-12-28T06:21:25;78.25;;;15.25;;
49962;SDS011;36180;57.678;11.910;2023-12-28T06:23:55;77.68;;;16.55;;
49962;SDS011;36180;57.678;11.910;2023-12-28T06:26:23;101.30;;;17.42;;
49962;SDS011;36180;57.678;11.910;2023-12-28T06:28:49;86.97;;;16.65;;
49962;SDS011;36180;57.678;11.910;2023-12-28T06:31:16;80.68;;;17.65;;
49962;SDS011;36180;57.678;11.910;2023-12-28T06:33:43;66.97;;;15.18;;
49962;SDS011;36180;57.678;11.910;2023-12-28T06:36:11;88.63;;;15.77;;
49962;SDS011;36180;57.678;11.910;2023-12-28T06:38:38;82.30;;;14.25;;
49962;SDS011;36180;57.678;11.910;2023-12-28T06:41:15;78.22;;;14.00;;
49962;SDS011;36180;57.678;11.910;2023-12-28T06:43:42;87.93;;;15.23;;
49962;SDS011;36180;57.678;11.910;2023-12-28T06:46:09;77.90;;;14.70;;
49962;SDS011;36180;57.678;11.910;2023-12-28T06:48:36;72.85;;;13.90;;
49962;SDS011;36180;57.678;11.910;2023-12-28T06:51:05;76.55;;;14.05;;
49962;SDS011;36180;57.678;11.910;2023-12-28T06:53:32;71.45;;;12.98;;
49962;SDS011;36180;57.678;11.910;2023-12-28T06:55:59;80.55;;;14.05;;
49962;SDS011;36180;57.678;11.910;2023-12-28T06:58:28;78.63;;;13.50;;
49962;SDS011;36180;57.678;11.910;2023-12-28T07:00:55;74.65;;;14.65;;
49962;SDS011;36180;57.678;11.910;2023-12-28T07:03:22;58.45;;;13.63;;
49962;SDS011;36180;57.678;11.910;2023-12-28T07:05:50;61.58;;;13.52;;
49962;SDS011;36180;57.678;11.910;2023-12-28T07:08:17;73.85;;;15.13;;
49962;SDS011;36180;57.678;11.910;2023-12-28T07:10:44;63.58;;;13.43;;
49962;SDS011;36180;57.678;11.910;2023-12-28T07:13:11;62.75;;;13.52;;
49962;SDS011;36180;57.678;11.910;2023-12-28T07:15:39;75.55;;;13.45;;
49962;SDS011;36180;57.678;11.910;2023-12-28T07:18:06;71.95;;;12.73;;
49962;SDS011;36180;57.678;11.910;2023-12-28T07:20:34;62.50;;;12.20;;
49962;SDS011;36180;57.678;11.910;2023-12-28T07:23:01;81.28;;;12.18;;
49962;SDS011;36180;57.678;11.910;2023-12-28T07:25:28;57.38;;;11.18;;
49962;SDS011;36180;57.678;11.910;2023-12-28T07:27:55;67.53;;;12.02;;
49962;SDS011;36180;57.678;11.910;2023-12-28T07:30:22;66.25;;;11.13;;
49962;SDS011;36180;57.678;11.910;2023-12-28T07:32:50;68.85;;;10.88;;
49962;SDS011;36180;57.678;11.910;2023-12-28T07:35:17;67.22;;;10.85;;
49962;SDS011;36180;57.678;11.910;2023-12-28T07:37:44;65.38;;;10.43;;
49962;SDS011;36180;57.678;11.910;2023-12-28T07:40:12;59.50;;;9.75;;
49962;SDS011;36180;57.678;11.910;2023-12-28T07:42:39;52.00;;;9.13;;
49962;SDS011;36180;57.678;11.910;2023-12-28T07:45:06;51.90;;;10.05;;
49962;SDS011;36180;57.678;11.910;2023-12-28T07:47:33;58.17;;;10.38;;
49962;SDS011;36180;57.678;11.910;2023-12-28T07:50:02;60.88;;;10.25;;
49962;SDS011;36180;57.678;11.910;2023-12-28T07:52:29;59.50;;;9.85;;
49962;SDS011;36180;57.678;11.910;2023-12-28T07:54:56;59.85;;;10.18;;
49962;SDS011;36180;57.678;11.910;2023-12-28T07:57:24;69.90;;;9.95;;
49962;SDS011;36180;57.678;11.910;2023-12-28T07:59:51;60.35;;;9.57;;
49962;SDS011;36180;57.678;11.910;2023-12-28T08:02:18;66.78;;;9.80;;
49962;SDS011;36180;57.678;11.910;2023-12-28T08:04:45;53.10;;;9.05;;
49962;SDS011;36180;57.678;11.910;2023-12-28T08:07:14;54.58;;;9.35;;
49962;SDS011;36180;57.678;11.910;2023-12-28T08:09:41;63.60;;;10.82;;
49962;SDS011;36180;57.678;11.910;2023-12-28T08:12:08;53.38;;;8.75;;
49962;SDS011;36180;57.678;11.910;2023-12-28T08:14:34;68.32;;;10.27;;
49962;SDS011;36180;57.678;11.910;2023-12-28T08:17:01;68.75;;;10.52;;
49962;SDS011;36180;57.678;11.910;2023-12-28T08:19:29;70.78;;;10.48;;
49962;SDS011;36180;57.678;11.910;2023-12-28T08:21:56;63.25;;;10.20;;
49962;SDS011;36180;57.678;11.910;2023-12-28T08:24:24;62.60;;;9.15;;
49962;SDS011;36180;57.678;11.910;2023-12-28T08:26:51;73.10;;;10.30;;
49962;SDS011;36180;57.678;11.910;2023-12-28T08:29:19;67.90;;;9.02;;
49962;SDS011;36180;57.678;11.910;2023-12-28T08:31:46;68.43;;;9.70;;
49962;SDS011;36180;57.678;11.910;2023-12-28T08:34:13;63.30;;;8.85;;
49962;SDS011;36180;57.678;11.910;2023-12-28T08:36:40;70.90;;;9.82;;
49962;SDS011;36180;57.678;11.910;2023-12-28T08:39:07;75.72;;;9.65;;
49962;SDS011;36180;57.678;11.910;2023-12-28T08:41:36;69.50;;;9.52;;
49962;SDS011;36180;57.678;11.910;2023-12-28T08:44:03;61.35;;;8.68;;
49962;SDS011;36180;57.678;11.910;2023-12-28T08:46:30;69.95;;;9.13;;
49962;SDS011;36180;57.678;11.910;2023-12-28T08:48:57;58.63;;;8.43;;
49962;SDS011;36180;57.678;11.910;2023-12-28T08:51:24;72.00;;;8.55;;
49962;SDS011;36180;57.678;11.910;2023-12-28T08:53:51;71.18;;;9.02;;
49962;SDS011;36180;57.678;11.910;2023-12-28T08:56:19;78.20;;;9.30;;
49962;SDS011;36180;57.678;11.910;2023-12-28T08:58:48;64.28;;;10.10;;
49962;SDS011;36180;57.678;11.910;2023-12-28T09:01:16;55.90;;;9.27;;
49962;SDS011;36180;57.678;11.910;2023-12-28T09:03:43;50.60;;;9.70;;
49962;SDS011;36180;57.678;11.910;2023-12-28T09:06:11;76.03;;;10.10;;
49962;SDS011;36180;57.678;11.910;2023-12-28T09:08:40;54.15;;;9.45;;
49962;SDS011;36180;57.678;11.910;2023-12-28T09:11:09;63.05;;;10.18;;
49962;SDS011;36180;57.678;11.910;2023-12-28T09:13:36;58.65;;;9.77;;
49962;SDS011;36180;57.678;11.910;2023-12-28T09:16:04;55.70;;;9.95;;
49962;SDS011;36180;57.678;11.910;2023-12-28T09:18:32;56.13;;;9.38;;
49962;SDS011;36180;57.678;11.910;2023-12-28T09:20:59;48.30;;;8.88;;
49962;SDS011;36180;57.678;11.910;2023-12-28T09:23:26;47.15;;;9.15;;
49962;SDS011;36180;57.678;11.910;2023-12-28T09:25:53;43.30;;;8.45;;
49962;SDS011;36180;57.678;11.910;2023-12-28T09:28:20;46.13;;;9.18;;
49962;SDS011;36180;57.678;11.910;2023-12-28T09:30:47;36.20;;;7.47;;
49962;SDS011;36180;57.678;11.910;2023-12-28T09:33:15;50.47;;;7.90;;
49962;SDS011;36180;57.678;11.910;2023-12-28T09:35:42;42.50;;;6.88;;
49962;SDS011;36180;57.678;11.910;2023-12-28T09:38:09;31.88;;;5.30;;
49962;SDS011;36180;57.678;11.910;2023-12-28T09:40:36;26.45;;;4.55;;
49962;SDS011;36180;57.678;11.910;2023-12-28T09:43:15;20.92;;;4.82;;
49962;SDS011;36180;57.678;11.910;2023-12-28T09:45:47;20.85;;;4.72;;
49962;SDS011;36180;57.678;11.910;2023-12-28T09:48:16;25.60;;;5.15;;
49962;SDS011;36180;57.678;11.910;2023-12-28T09:50:44;22.50;;;4.45;;
49962;SDS011;36180;57.678;11.910;2023-12-28T09:53:11;29.95;;;4.88;;
49962;SDS011;36180;57.678;11.910;2023-12-28T09:55:38;34.13;;;5.18;;
49962;SDS011;36180;57.678;11.910;2023-12-28T09:58:05;37.55;;;5.63;;
49962;SDS011;36180;57.678;11.910;2023-12-28T10:00:33;36.83;;;6.00;;
49962;SDS011;36180;57.678;11.910;2023-12-28T10:03:00;37.65;;;6.30;;
49962;SDS011;36180;57.678;11.910;2023-12-28T10:05:29;37.92;;;6.28;;
49962;SDS011;36180;57.678;11.910;2023-12-28T10:07:56;35.45;;;5.78;;
49962;SDS011;36180;57.678;11.910;2023-12-28T10:10:23;44.08;;;7.55;;
49962;SDS011;36180;57.678;11.910;2023-12-28T10:12:50;46.72;;;8.73;;
49962;SDS011;36180;57.678;11.910;2023-12-28T10:15:17;48.97;;;7.57;;
49962;SDS011;36180;57.678;11.910;2023-12-28T10:17:45;47.25;;;6.53;;
49962;SDS011;36180;57.678;11.910;2023-12-28T10:20:13;47.65;;;6.88;;
49962;SDS011;36180;57.678;11.910;2023-12-28T10:22:42;55.72;;;7.25;;
49962;SDS011;36180;57.678;11.910;2023-12-28T10:25:10;64.10;;;7.93;;
49962;SDS011;36180;57.678;11.910;2023-12-28T10:27:38;57.92;;;7.50;;
49962;SDS011;36180;57.678;11.910;2023-12-28T10:30:07;55.60;;;7.85;;
49962;SDS011;36180;57.678;11.910;2023-12-28T10:32:35;52.45;;;7.65;;
49962;SDS011;36180;57.678;11.910;2023-12-28T10:35:02;52.53;;;6.63;;
49962;SDS011;36180;57.678;11.910;2023-12-28T10:37:30;61.88;;;7.20;;
49962;SDS011;36180;57.678;11.910;2023-12-28T10:40:00;53.97;;;6.82;;
49962;SDS011;36180;57.678;11.910;2023-12-28T10:42:28;58.25;;;7.68;;
49962;SDS011;36180;57.678;11.910;2023-12-28T10:45:01;64.40;;;8.13;;
49962;SDS011;36180;57.678;11.910;2023-12-28T10:47:31;68.88;;;8.38;;
49962;SDS011;36180;57.678;11.910;2023-12-28T10:50:00;66.90;;;8.18;;
49962;SDS011;36180;57.678;11.910;2023-12-28T10:52:30;66.93;;;7.95;;
49962;SDS011;36180;57.678;11.910;2023-12-28T10:55:03;57.22;;;7.45;;
49962;SDS011;36180;57.678;11.910;2023-12-28T10:57:44;63.95;;;7.90;;
49962;SDS011;36180;57.678;11.910;2023-12-28T11:00:20;61.08;;;7.30;;
49962;SDS011;36180;57.678;11.910;2023-12-28T11:02:51;55.03;;;7.20;;
49962;SDS011;36180;57.678;11.910;2023-12-28T11:05:19;58.17;;;7.00;;
49962;SDS011;36180;57.678;11.910;2023-12-28T11:07:46;53.95;;;6.13;;
49962;SDS011;36180;57.678;11.910;2023-12-28T11:10:15;69.50;;;7.13;;
49962;SDS011;36180;57.678;11.910;2023-12-28T11:12:43;56.25;;;7.15;;
49962;SDS011;36180;57.678;11.910;2023-12-28T11:15:10;67.82;;;7.88;;
49962;SDS011;36180;57.678;11.910;2023-12-28T11:17:39;52.70;;;7.88;;
49962;SDS011;36180;57.678;11.910;2023-12-28T11:20:07;67.82;;;7.45;;
49962;SDS011;36180;57.678;11.910;2023-12-28T11:22:35;64.75;;;6.97;;
49962;SDS011;36180;57.678;11.910;2023-12-28T11:25:02;50.72;;;6.30;;
49962;SDS011;36180;57.678;11.910;2023-12-28T11:27:34;46.95;;;4.80;;
49962;SDS011;36180;57.678;11.910;2023-12-28T11:30:02;43.50;;;4.53;;
49962;SDS011;36180;57.678;11.910;2023-12-28T11:32:32;32.17;;;4.32;;
49962;SDS011;36180;57.678;11.910;2023-12-28T11:34:59;34.80;;;4.28;;
49962;SDS011;36180;57.678;11.910;2023-12-28T11:37:26;29.58;;;4.43;;
49962;SDS011;36180;57.678;11.910;2023-12-28T11:39:54;27.60;;;3.20;;
49962;SDS011;36180;57.678;11.910;2023-12-28T11:42:23;26.75;;;2.97;;
49962;SDS011;36180;57.678;11.910;2023-12-28T11:44:54;27.10;;;3.05;;
49962;SDS011;36180;57.678;11.910;2023-12-28T11:47:21;22.75;;;3.05;;
49962;SDS011;36180;57.678;11.910;2023-12-28T11:49:49;26.00;;;2.60;;
49962;SDS011;36180;57.678;11.910;2023-12-28T11:52:24;17.42;;;2.60;;
49962;SDS011;36180;57.678;11.910;2023-12-28T11:54:52;27.52;;;2.75;;
49962;SDS011;36180;57.678;11.910;2023-12-28T11:57:19;26.77;;;2.97;;
49962;SDS011;36180;57.678;11.910;2023-12-28T11:59:47;22.75;;;2.53;;
49962;SDS011;36180;57.678;11.910;2023-12-28T12:02:16;23.45;;;2.92;;
49962;SDS011;36180;57.678;11.910;2023-12-28T12:04:44;14.82;;;2.42;;
49962;SDS011;36180;57.678;11.910;2023-12-28T12:07:11;23.58;;;2.50;;
49962;SDS011;36180;57.678;11.910;2023-12-28T12:09:38;15.13;;;2.28;;
49962;SDS011;36180;57.678;11.910;2023-12-28T12:12:06;26.10;;;2.78;;
49962;SDS011;36180;57.678;11.910;2023-12-28T12:14:33;23.92;;;2.50;;
49962;SDS011;36180;57.678;11.910;2023-12-28T12:17:01;18.70;;;2.70;;
49962;SDS011;36180;57.678;11.910;2023-12-28T12:19:29;18.80;;;3.03;;
49962;SDS011;36180;57.678;11.910;2023-12-28T12:21:57;16.17;;;2.40;;
49962;SDS011;36180;57.678;11.910;2023-12-28T12:24:24;21.15;;;2.03;;
49962;SDS011;36180;57.678;11.910;2023-12-28T12:26:51;16.80;;;2.67;;
49962;SDS011;36180;57.678;11.910;2023-12-28T12:29:20;16.92;;;2.58;;
49962;SDS011;36180;57.678;11.910;2023-12-28T12:31:47;21.33;;;2.55;;
49962;SDS011;36180;57.678;11.910;2023-12-28T12:34:15;16.15;;;2.58;;
49962;SDS011;36180;57.678;11.910;2023-12-28T12:36:44;18.55;;;2.65;;
49962;SDS011;36180;57.678;11.910;2023-12-28T12:39:11;24.33;;;2.35;;
49962;SDS011;36180;57.678;11.910;2023-12-28T12:41:38;13.20;;;2.70;;
49962;SDS011;36180;57.678;11.910;2023-12-28T12:44:05;18.83;;;2.22;;
49962;SDS011;36180;57.678;11.910;2023-12-28T12:46:32;18.98;;;2.28;;
49962;SDS011;36180;57.678;11.910;2023-12-28T12:49:00;10.30;;;2.05;;
49962;SDS011;36180;57.678;11.910;2023-12-28T12:51:27;15.15;;;1.92;;
49962;SDS011;36180;57.678;11.910;2023-12-28T12:53:59;20.65;;;1.92;;
49962;SDS011;36180;57.678;11.910;2023-12-28T12:56:26;14.60;;;2.22;;
49962;SDS011;36180;57.678;11.910;2023-12-28T12:58:55;19.65;;;1.95;;
49962;SDS011;36180;57.678;11.910;2023-12-28T13:01:23;20.25;;;2.15;;
49962;SDS011;36180;57.678;11.910;2023-12-28T13:03:50;20.38;;;2.42;;
49962;SDS011;36180;57.678;11.910;2023-12-28T13:06:18;13.88;;;2.17;;
49962;SDS011;36180;57.678;11.910;2023-12-28T13:08:48;21.52;;;2.30;;
49962;SDS011;36180;57.678;11.910;2023-12-28T13:11:16;22.13;;;2.25;;
49962;SDS011;36180;57.678;11.910;2023-12-28T13:13:48;10.27;;;2.05;;
49962;SDS011;36180;57.678;11.910;2023-12-28T13:16:16;19.73;;;2.67;;
49962;SDS011;36180;57.678;11.910;2023-12-28T13:18:43;11.77;;;2.00;;
49962;SDS011;36180;57.678;11.910;2023-12-28T13:21:10;15.40;;;2.53;;
49962;SDS011;36180;57.678;11.910;2023-12-28T13:23:38;21.50;;;2.45;;
49962;SDS011;36180;57.678;11.910;2023-12-28T13:26:05;18.90;;;2.53;;
49962;SDS011;36180;57.678;11.910;2023-12-28T13:28:33;15.52;;;2.00;;
49962;SDS011;36180;57.678;11.910;2023-12-28T13:31:00;30.00;;;3.28;;
49962;SDS011;36180;57.678;11.910;2023-12-28T13:33:27;24.90;;;2.13;;
49962;SDS011;36180;57.678;11.910;2023-12-28T13:35:55;15.85;;;1.75;;
49962;SDS011;36180;57.678;11.910;2023-12-28T13:38:23;20.13;;;2.47;;
49962;SDS011;36180;57.678;11.910;2023-12-28T13:40:50;15.18;;;2.30;;
49962;SDS011;36180;57.678;11.910;2023-12-28T13:43:17;20.88;;;2.35;;
49962;SDS011;36180;57.678;11.910;2023-12-28T13:45:45;17.10;;;1.48;;
49962;SDS011;36180;57.678;11.910;2023-12-28T13:48:12;21.23;;;2.00;;
49962;SDS011;36180;57.678;11.910;2023-12-28T13:50:39;14.05;;;1.67;;
49962;SDS011;36180;57.678;11.910;2023-12-28T13:53:06;19.73;;;2.88;;
49962;SDS011;36180;57.678;11.910;2023-12-28T13:55:33;23.70;;;2.15;;
49962;SDS011;36180;57.678;11.910;2023-12-28T13:58:01;21.42;;;2.38;;
49962;SDS011;36180;57.678;11.910;2023-12-28T14:00:28;22.50;;;2.65;;
49962;SDS011;36180;57.678;11.910;2023-12-28T14:02:56;13.43;;;1.95;;
49962;SDS011;36180;57.678;11.910;2023-12-28T14:05:24;12.13;;;1.90;;
49962;SDS011;36180;57.678;11.910;2023-12-28T14:07:51;25.02;;;2.40;;
49962;SDS011;36180;57.678;11.910;2023-12-28T14:10:18;21.25;;;2.22;;
49962;SDS011;36180;57.678;11.910;2023-12-28T14:12:45;25.33;;;2.35;;
49962;SDS011;36180;57.678;11.910;2023-12-28T14:15:12;18.70;;;2.35;;
49962;SDS011;36180;57.678;11.910;2023-12-28T14:17:40;20.70;;;2.70;;
49962;SDS011;36180;57.678;11.910;2023-12-28T14:20:09;22.80;;;2.35;;
49962;SDS011;36180;57.678;11.910;2023-12-28T14:22:37;15.43;;;2.25;;
49962;SDS011;36180;57.678;11.910;2023-12-28T14:25:05;25.77;;;2.90;;
49962;SDS011;36180;57.678;11.910;2023-12-28T14:27:33;18.45;;;2.75;;
49962;SDS011;36180;57.678;11.910;2023-12-28T14:30:01;13.90;;;2.20;;